METAR AND TAF INFORMATION
METAR FOR EKVG
ADDS - METARS form results

(0054 UTC 12 September 2022)
Data provider http://aviationweather.gov/metar/data/
 
METAR text: EKVG 120050Z AUTO VRB01KT 9999 OVC016/// 08/08 Q1002 RMK OVC017/// WIND SKEID 19001KT
Conditions at: EKVG (SORVAAG/VAGAR , DK) observed 0050 UTC 12 September 2022
Temperature: 8.0°C (46°F)
Dewpoint: 8.0°C (46°F) [RH = 100%]
Pressure (altimeter): 29.59 inches Hg (1002.0 mb)
Winds: variable direction winds at 1 MPH (1 knots; 0.5 m/s)
Visibility: 6 or more miles (10+ km)
Ceiling: 1600 feet AGL
Clouds: overcast cloud deck at 1600 feet AGL
Weather: no significant weather observed at this time

METAR text: EKVG 120020Z AUTO 00000KT 9999 BKN017/// 08/08 Q1002 RMK BKN017/// WIND SKEID 21002KT
Conditions at: EKVG (SORVAAG/VAGAR , DK) observed 0020 UTC 12 September 2022
Temperature: 8.0°C (46°F)
Dewpoint: 8.0°C (46°F) [RH = 100%]
Pressure (altimeter): 29.59 inches Hg (1002.0 mb)
Winds: calm
Visibility: 6 or more miles (10+ km)
Ceiling: 1700 feet AGL
Clouds: broken clouds at 1700 feet AGL
Weather: no significant weather observed at this time

Forecast for: AMD
Text: TAF AMD EKVG 111808Z 1118/1121 18008KT 0300 DZ FG OVC001
Forecast period: 1800 to 2100 UTC 11 September 2022
Forecast type: FROM: standard forecast or significant change
Winds: from the S (180 degrees) at 9 MPH (8 knots; 4.1 m/s)
Visibility: 0.19 miles (0.31 km)
Ceiling: 100 feet AGL
Clouds: overcast cloud deck at 100 feet AGL
Weather: DZ FG  (moderate drizzle, fog)
Text: BECMG 1118/1120 28006KT 5000 -DZ BR SCT002 BKN010
Forecast period: 1800 to 2100 UTC 11 September 2022
Forecast type: BECOMING: Conditions expected to become as follows by 2000 UTC 11 September 2022
Winds: from the W (280 degrees) at 7 MPH (6 knots; 3.1 m/s)
Visibility: 3 miles (5 km)
Ceiling: 1000 feet AGL
Clouds: scattered clouds at 200 feet AGL
broken clouds at 1000 feet AGL
Weather: -DZ BR  (light drizzle, mist)

 AIRPORT MAP

 RUNWAY INFORMATION
Runway 13 Runway length 5902 ft Runway width 98 ft
Runway elevation 268 ft Runway displaced threshold 0 ft Runway heading 118
Runway 31 Runway length 5902 ft Runway width 98 ft
Runway elevation 252 ft Runway displaced threshold 0 ft Runway heading 298

 AIRPORT FREQUENCIES
Type AFIS Name AFIS Frequency 124.85 MHZ

 AIRPORT NEAR NAVIGATION AIDS
Type NDB Name Myggenes Frequency 337 KHZ
Type NDB Name Nolso Frequency 404 KHZ
Type NDB Name Vagar Frequency 348 KHZ